createdAt,value
2018-09-25T00:01:39.344Z,8.60
2018-09-25T00:04:13.723Z,8.60
2018-09-25T00:06:47.559Z,8.60
2018-09-25T00:09:21.469Z,8.60
2018-09-25T00:11:55.354Z,8.50
2018-09-25T00:14:29.289Z,8.50
2018-09-25T00:17:03.098Z,8.50
2018-09-25T00:19:37.351Z,8.50
2018-09-25T00:22:11.523Z,8.50
2018-09-25T00:24:45.830Z,8.50
2018-09-25T00:27:19.659Z,8.50
2018-09-25T00:29:53.305Z,8.50
2018-09-25T00:32:26.961Z,8.40
2018-09-25T00:35:00.784Z,8.40
2018-09-25T00:37:34.727Z,8.40
2018-09-25T00:40:08.556Z,8.40
2018-09-25T00:42:42.210Z,8.40
2018-09-25T00:45:16.686Z,8.40
2018-09-25T00:47:50.826Z,8.40
2018-09-25T00:50:24.807Z,8.40
2018-09-25T00:52:58.718Z,8.30
2018-09-25T00:55:32.485Z,8.30
2018-09-25T00:58:06.718Z,8.30
2018-09-25T01:00:41.777Z,8.30
2018-09-25T01:03:15.554Z,8.30
2018-09-25T01:05:49.407Z,8.30
2018-09-25T01:08:23.290Z,8.30
2018-09-25T01:10:57.094Z,8.20
2018-09-25T01:13:30.792Z,8.20
2018-09-25T01:16:04.723Z,8.20
2018-09-25T01:18:38.569Z,8.20
2018-09-25T01:21:12.603Z,8.20
2018-09-25T01:23:46.287Z,8.20
2018-09-25T01:26:20.187Z,8.10
2018-09-25T01:28:54.096Z,8.10
2018-09-25T01:31:28.074Z,8.10
2018-09-25T01:34:01.985Z,8.10
2018-09-25T01:36:36.101Z,8.00
2018-09-25T01:39:11.922Z,8.00
2018-09-25T01:41:45.830Z,8.00
2018-09-25T01:44:19.495Z,8.00
2018-09-25T01:46:53.337Z,8.00
2018-09-25T01:49:27.146Z,8.00
2018-09-25T01:52:01.159Z,8.00
2018-09-25T01:54:35.021Z,8.00
2018-09-25T01:57:09.066Z,8.00
2018-09-25T01:59:42.948Z,7.90
2018-09-25T02:02:16.918Z,7.90
2018-09-25T02:04:50.693Z,7.90
2018-09-25T02:07:24.465Z,7.90
2018-09-25T02:09:58.900Z,7.90
2018-09-25T02:12:32.733Z,7.90
2018-09-25T02:15:06.538Z,7.90
2018-09-25T02:17:40.213Z,7.90
2018-09-25T02:20:14.388Z,7.90
2018-09-25T02:22:48.134Z,7.90
2018-09-25T02:25:22.038Z,7.80
2018-09-25T02:27:55.844Z,7.80
2018-09-25T02:30:29.534Z,7.80
2018-09-25T02:33:03.461Z,7.80
2018-09-25T02:35:37.243Z,7.80
2018-09-25T02:38:11.298Z,7.70
2018-09-25T02:40:44.966Z,7.70
2018-09-25T02:43:18.878Z,7.70
2018-09-25T02:45:52.747Z,7.70
2018-09-25T02:48:26.678Z,7.70
2018-09-25T02:51:00.562Z,7.70
2018-09-25T02:53:34.420Z,7.70
2018-09-25T02:56:08.730Z,7.70
2018-09-25T02:58:42.473Z,7.70
2018-09-25T03:01:16.203Z,7.70
2018-09-25T03:03:49.883Z,7.70
2018-09-25T03:06:23.798Z,7.70
2018-09-25T03:08:57.800Z,7.70
2018-09-25T03:11:31.535Z,7.60
2018-09-25T03:14:05.439Z,7.60
2018-09-25T03:16:39.123Z,7.60
2018-09-25T03:19:13.171Z,7.60
2018-09-25T03:21:47.037Z,7.60
2018-09-25T03:24:21.041Z,7.60
2018-09-25T03:26:54.780Z,7.60
2018-09-25T03:29:28.660Z,7.60
2018-09-25T03:32:02.561Z,7.60
2018-09-25T03:34:36.300Z,7.60
2018-09-25T03:37:10.864Z,7.60
2018-09-25T03:39:44.870Z,7.60
2018-09-25T03:42:18.672Z,7.60
2018-09-25T03:44:52.398Z,7.50
2018-09-25T03:47:26.271Z,7.50
2018-09-25T03:49:59.906Z,7.50
2018-09-25T03:52:33.711Z,7.50
2018-09-25T03:55:07.477Z,7.50
2018-09-25T03:57:41.314Z,7.50
2018-09-25T04:00:15.356Z,7.50
2018-09-25T04:02:49.197Z,7.40
2018-09-25T04:05:23.004Z,7.50
2018-09-25T04:07:56.716Z,7.40
2018-09-25T04:10:30.625Z,7.40
2018-09-25T04:13:04.500Z,7.40
2018-09-25T04:15:38.328Z,7.40
2018-09-25T04:18:12.180Z,7.40
2018-09-25T04:20:45.951Z,7.40
2018-09-25T04:23:19.856Z,7.40
2018-09-25T04:25:53.835Z,7.40
2018-09-25T04:28:27.606Z,7.40
2018-09-25T04:31:01.444Z,7.40
2018-09-25T04:33:35.867Z,7.40
2018-09-25T04:36:09.559Z,7.40
2018-09-25T04:38:43.309Z,7.40
2018-09-25T04:41:17.159Z,7.40
2018-09-25T04:43:51.060Z,7.30
2018-09-25T04:46:25.139Z,7.40
2018-09-25T04:48:59.091Z,7.30
2018-09-25T04:51:33.045Z,7.30
2018-09-25T04:54:07.424Z,7.30
2018-09-25T04:56:41.490Z,7.30
2018-09-25T04:59:15.658Z,7.30
2018-09-25T05:01:49.380Z,7.30
2018-09-25T05:04:23.302Z,7.30
2018-09-25T05:06:57.153Z,7.30
2018-09-25T05:09:31.667Z,7.30
2018-09-25T05:12:05.465Z,7.30
2018-09-25T05:14:39.451Z,7.20
2018-09-25T05:17:13.473Z,7.30
2018-09-25T05:19:47.478Z,7.30
2018-09-25T05:22:21.846Z,7.30
2018-09-25T05:24:55.744Z,7.40
2018-09-25T05:27:29.601Z,7.40
2018-09-25T05:30:03.454Z,7.50
2018-09-25T05:32:37.379Z,7.50
2018-09-25T05:35:11.208Z,7.60
2018-09-25T05:37:45.008Z,7.70
2018-09-25T05:40:18.901Z,7.70
2018-09-25T05:42:52.721Z,7.80
2018-09-25T05:45:27.125Z,7.90
2018-09-25T05:48:01.356Z,7.90
2018-09-25T05:50:35.105Z,8.00
2018-09-25T05:53:09.818Z,8.10
2018-09-25T05:55:43.669Z,8.10
2018-09-25T05:58:17.604Z,8.20
2018-09-25T06:00:51.503Z,8.30
2018-09-25T06:03:25.823Z,8.30
2018-09-25T06:05:59.850Z,8.40
2018-09-25T06:08:33.718Z,8.40
2018-09-25T06:11:07.863Z,8.50
2018-09-25T06:13:48.741Z,8.60
2018-09-25T06:16:22.566Z,8.60
2018-09-25T06:18:56.429Z,8.70
2018-09-25T06:21:31.191Z,8.80
2018-09-25T06:24:05.111Z,8.80
2018-09-25T06:26:39.003Z,8.80
2018-09-25T06:29:12.868Z,8.90
2018-09-25T06:31:46.907Z,8.90
2018-09-25T06:34:20.810Z,9.00
2018-09-25T06:36:54.542Z,9.10
2018-09-25T06:39:28.315Z,9.10
2018-09-25T06:42:02.191Z,9.20
2018-09-25T06:44:35.974Z,9.30
2018-09-25T06:47:10.518Z,9.30
2018-09-25T06:49:45.359Z,9.40
2018-09-25T06:52:19.058Z,9.40
2018-09-25T06:54:54.521Z,9.50
2018-09-25T06:57:28.455Z,9.60
2018-09-25T07:00:02.229Z,9.60
2018-09-25T07:02:35.990Z,9.70
2018-09-25T07:05:10.022Z,9.80
2018-09-25T07:07:43.998Z,9.80
2018-09-25T07:10:18.016Z,9.90
2018-09-25T07:12:52.725Z,9.90
2018-09-25T07:15:26.576Z,10.00
2018-09-25T07:18:00.371Z,10.10
2018-09-25T07:20:34.057Z,10.20
2018-09-25T07:23:08.002Z,10.20
2018-09-25T07:25:42.075Z,10.30
2018-09-25T07:28:16.005Z,10.30
2018-09-25T07:30:49.965Z,10.40
2018-09-25T07:33:23.582Z,10.40
2018-09-25T07:35:57.223Z,10.50
2018-09-25T07:38:31.002Z,10.50
2018-09-25T07:41:04.906Z,10.50
2018-09-25T07:43:38.915Z,10.60
2018-09-25T07:46:12.773Z,10.70
2018-09-25T07:48:46.586Z,10.80
2018-09-25T07:51:20.346Z,10.90
2018-09-25T07:53:54.647Z,11.00
2018-09-25T07:56:28.983Z,11.00
2018-09-25T07:59:02.704Z,11.10
2018-09-25T08:01:36.378Z,11.10
2018-09-25T08:04:10.276Z,11.20
2018-09-25T08:06:44.256Z,11.30
2018-09-25T08:09:18.320Z,11.40
2018-09-25T08:11:52.241Z,11.50
2018-09-25T08:14:26.516Z,11.60
2018-09-25T08:17:00.396Z,11.80
2018-09-25T08:19:34.355Z,11.90
2018-09-25T08:22:08.261Z,12.00
2018-09-25T08:24:42.173Z,12.10
2018-09-25T08:27:16.045Z,12.10
2018-09-25T08:29:50.764Z,12.30
2018-09-25T08:32:24.655Z,12.30
2018-09-25T08:34:58.569Z,12.40
2018-09-25T08:37:32.270Z,12.40
2018-09-25T08:40:06.425Z,12.50
2018-09-25T08:42:40.167Z,12.60
2018-09-25T08:45:14.017Z,12.60
2018-09-25T08:47:48.002Z,12.80
2018-09-25T08:50:22.004Z,12.90
2018-09-25T08:52:56.109Z,12.90
2018-09-25T08:55:30.063Z,12.80
2018-09-25T08:58:04.411Z,13.10
2018-09-25T09:00:38.278Z,13.50
2018-09-25T09:03:12.152Z,13.60
2018-09-25T09:05:46.069Z,13.70
2018-09-25T09:08:19.874Z,13.60
2018-09-25T09:10:53.804Z,13.70
2018-09-25T09:13:27.483Z,13.50
2018-09-25T09:16:01.467Z,13.50
2018-09-25T09:18:35.414Z,13.20
2018-09-25T09:21:09.349Z,13.30
2018-09-25T09:23:43.280Z,13.30
2018-09-25T09:26:17.139Z,13.10
2018-09-25T09:28:50.964Z,13.70
2018-09-25T09:31:24.807Z,13.60
2018-09-25T09:33:58.628Z,13.20
2018-09-25T09:36:32.454Z,12.90
2018-09-25T09:39:06.433Z,13.20
2018-09-25T09:41:40.437Z,13.60
2018-09-25T09:44:14.850Z,13.50
2018-09-25T09:46:48.754Z,13.80
2018-09-25T09:49:23.158Z,13.80
2018-09-25T09:51:57.091Z,13.60
2018-09-25T09:54:30.998Z,13.80
2018-09-25T09:57:05.166Z,14.00
2018-09-25T09:59:38.895Z,14.30
2018-09-25T10:02:13.113Z,14.50
2018-09-25T10:04:47.097Z,14.60
2018-09-25T10:07:20.762Z,14.90
2018-09-25T10:09:54.942Z,14.80
2018-09-25T10:12:28.784Z,15.10
2018-09-25T10:15:03.176Z,15.40
2018-09-25T10:17:37.784Z,15.50
2018-09-25T10:20:11.602Z,15.00
2018-09-25T10:22:45.506Z,14.80
2018-09-25T10:25:19.287Z,15.00
2018-09-25T10:27:53.635Z,15.20
2018-09-25T10:30:27.768Z,14.90
2018-09-25T10:33:01.675Z,14.70
2018-09-25T10:35:35.576Z,14.70
2018-09-25T10:38:09.468Z,14.40
2018-09-25T10:40:43.472Z,14.40
2018-09-25T10:43:17.699Z,14.20
2018-09-25T10:45:51.864Z,14.00
2018-09-25T10:48:25.741Z,14.00
2018-09-25T10:50:59.618Z,14.10
2018-09-25T10:53:33.673Z,14.30
2018-09-25T10:56:07.660Z,14.50
2018-09-25T10:58:41.558Z,14.70
2018-09-25T11:01:15.416Z,14.60
2018-09-25T11:03:49.121Z,14.20
2018-09-25T11:06:23.083Z,14.00
2018-09-25T11:08:56.966Z,13.70
2018-09-25T11:11:30.733Z,13.60
2018-09-25T11:14:04.709Z,13.50
2018-09-25T11:16:39.364Z,13.50
2018-09-25T11:19:13.278Z,13.60
2018-09-25T11:21:47.187Z,13.90
2018-09-25T11:24:21.011Z,13.90
2018-09-25T11:26:54.981Z,13.90
2018-09-25T11:29:28.807Z,13.80
2018-09-25T11:32:02.663Z,13.70
2018-09-25T11:34:36.582Z,13.60
2018-09-25T11:37:10.548Z,13.80
2018-09-25T11:39:44.407Z,14.00
2018-09-25T11:42:18.242Z,14.00
2018-09-25T11:44:52.225Z,14.00
2018-09-25T11:47:26.117Z,13.90
2018-09-25T11:49:59.870Z,13.90
2018-09-25T11:52:33.837Z,13.90
2018-09-25T11:55:07.823Z,13.90
2018-09-25T11:57:41.790Z,14.00
2018-09-25T12:00:15.594Z,14.10
2018-09-25T12:02:49.562Z,14.10
2018-09-25T12:05:23.506Z,14.10
2018-09-25T12:07:57.387Z,13.90
2018-09-25T12:10:31.170Z,13.80
2018-09-25T12:13:04.946Z,13.70
2018-09-25T12:15:39.111Z,13.60
2018-09-25T12:18:13.060Z,13.50
2018-09-25T12:20:46.871Z,13.40
2018-09-25T12:23:21.134Z,13.30
2018-09-25T12:25:54.856Z,13.30
2018-09-25T12:28:29.336Z,13.30
2018-09-25T12:31:03.312Z,13.30
2018-09-25T12:33:37.219Z,13.30
2018-09-25T12:36:11.286Z,13.20
2018-09-25T12:38:45.174Z,13.20
2018-09-25T12:41:19.041Z,13.20
2018-09-25T12:43:52.943Z,13.20
2018-09-25T12:46:26.947Z,13.20
2018-09-25T12:49:01.584Z,13.40
2018-09-25T12:51:35.482Z,13.50
2018-09-25T12:54:09.588Z,13.70
2018-09-25T12:56:43.603Z,13.80
2018-09-25T12:59:17.522Z,13.90
2018-09-25T13:01:51.432Z,14.00
2018-09-25T13:04:25.182Z,14.10
2018-09-25T13:06:59.218Z,14.00
2018-09-25T13:09:33.109Z,13.90
2018-09-25T13:12:07.060Z,13.90
2018-09-25T13:14:40.796Z,13.80
2018-09-25T13:17:14.630Z,13.70
2018-09-25T13:19:48.511Z,13.50
2018-09-25T13:22:22.451Z,13.40
2018-09-25T13:24:56.192Z,13.40
2018-09-25T13:27:30.144Z,13.20
2018-09-25T13:30:03.945Z,13.20
2018-09-25T13:32:37.918Z,13.10
2018-09-25T13:35:11.962Z,13.10
2018-09-25T13:37:45.869Z,13.10
2018-09-25T13:40:19.675Z,13.10
2018-09-25T13:42:53.473Z,13.00
2018-09-25T13:45:27.588Z,13.00
2018-09-25T13:48:02.320Z,13.00
2018-09-25T13:50:36.263Z,13.00
2018-09-25T13:53:10.189Z,13.00
2018-09-25T13:55:43.959Z,12.90
2018-09-25T13:58:17.929Z,12.90
2018-09-25T14:00:52.047Z,12.90
2018-09-25T14:03:25.985Z,12.80
2018-09-25T14:05:59.898Z,12.80
2018-09-25T14:08:34.655Z,12.80
2018-09-25T14:11:08.505Z,12.80
2018-09-25T14:13:42.475Z,12.80
2018-09-25T14:16:16.353Z,12.80
2018-09-25T14:18:50.489Z,12.80
2018-09-25T14:21:24.522Z,12.70
2018-09-25T14:23:58.505Z,12.70
2018-09-25T14:26:32.325Z,12.70
2018-09-25T14:29:06.230Z,12.70
2018-09-25T14:31:40.083Z,12.70
2018-09-25T14:34:14.148Z,12.60
2018-09-25T14:36:48.247Z,12.60
2018-09-25T14:39:22.036Z,12.60
2018-09-25T14:41:56.917Z,12.60
2018-09-25T14:44:30.969Z,12.60
2018-09-25T14:47:05.215Z,12.60
2018-09-25T14:49:38.931Z,12.60
2018-09-25T14:52:12.773Z,12.70
2018-09-25T14:54:47.946Z,12.70
2018-09-25T14:57:21.884Z,12.70
2018-09-25T14:59:55.858Z,12.70
2018-09-25T15:02:29.764Z,12.80
2018-09-25T15:05:03.606Z,12.90
2018-09-25T15:07:37.621Z,12.90
2018-09-25T15:10:11.747Z,13.00
2018-09-25T15:12:45.747Z,13.10
2018-09-25T15:15:19.797Z,13.10
2018-09-25T15:17:53.745Z,13.20
2018-09-25T15:20:27.848Z,13.40
2018-09-25T15:23:02.221Z,13.50
2018-09-25T15:25:36.222Z,13.50
2018-09-25T15:28:10.192Z,13.40
2018-09-25T15:30:44.110Z,13.40
2018-09-25T15:33:18.029Z,13.40
2018-09-25T15:35:52.536Z,13.30
2018-09-25T15:38:27.960Z,13.20
2018-09-25T15:41:01.873Z,13.20
2018-09-25T15:43:35.715Z,13.20
2018-09-25T15:46:09.623Z,13.10
2018-09-25T15:48:45.758Z,13.10
2018-09-25T15:51:19.797Z,13.10
2018-09-25T15:53:54.302Z,13.10
2018-09-25T15:56:28.239Z,13.10
2018-09-25T15:59:03.442Z,13.20
2018-09-25T16:01:37.174Z,13.20
2018-09-25T16:04:10.978Z,13.20
2018-09-25T16:06:44.833Z,13.20
2018-09-25T16:09:18.657Z,13.10
2018-09-25T16:11:52.610Z,13.00
2018-09-25T16:14:26.569Z,13.00
2018-09-25T16:17:00.527Z,12.90
2018-09-25T16:19:34.416Z,12.80
2018-09-25T16:22:08.478Z,12.80
2018-09-25T16:24:42.416Z,12.60
2018-09-25T16:27:16.377Z,12.60
2018-09-25T16:29:51.666Z,12.50
2018-09-25T16:32:25.441Z,12.40
2018-09-25T16:34:59.844Z,12.30
2018-09-25T16:37:33.765Z,12.20
2018-09-25T16:40:09.502Z,12.10
2018-09-25T16:42:44.044Z,12.10
2018-09-25T16:45:17.941Z,12.00
2018-09-25T16:47:51.773Z,11.90
2018-09-25T16:50:25.617Z,11.90
2018-09-25T16:52:59.463Z,11.80
2018-09-25T16:55:33.402Z,11.70
2018-09-25T16:58:07.151Z,11.70
2018-09-25T17:00:41.069Z,11.60
2018-09-25T17:03:14.979Z,11.60
2018-09-25T17:05:49.155Z,11.50
2018-09-25T17:08:23.147Z,11.40
2018-09-25T17:10:57.648Z,11.40
2018-09-25T17:13:32.366Z,11.40
2018-09-25T17:16:07.560Z,11.30
2018-09-25T17:18:49.285Z,11.30
2018-09-25T17:21:23.667Z,11.20
2018-09-25T17:23:57.799Z,11.10
2018-09-25T17:26:32.754Z,11.10
2018-09-25T17:29:07.050Z,11.10
2018-09-25T17:31:41.552Z,11.00
2018-09-25T17:34:16.140Z,11.00
2018-09-25T17:36:50.717Z,10.90
2018-09-25T17:39:24.532Z,10.90
2018-09-25T17:41:58.648Z,10.80
2018-09-25T17:44:32.312Z,10.80
2018-09-25T17:47:06.315Z,10.70
2018-09-25T17:49:40.163Z,10.70
2018-09-25T17:52:14.210Z,10.70
2018-09-25T17:54:48.409Z,10.70
2018-09-25T17:57:23.065Z,10.70
2018-09-25T17:59:57.199Z,10.60
2018-09-25T18:02:32.322Z,10.50
2018-09-25T18:05:06.131Z,10.50
2018-09-25T18:07:40.065Z,10.50
2018-09-25T18:10:14.477Z,10.40
2018-09-25T18:12:49.779Z,10.40
2018-09-25T18:15:23.948Z,10.30
2018-09-25T18:17:58.481Z,10.30
2018-09-25T18:20:32.518Z,10.30
2018-09-25T18:23:06.497Z,10.30
2018-09-25T18:25:40.622Z,10.30
2018-09-25T18:28:14.568Z,10.30
2018-09-25T18:30:48.444Z,10.20
2018-09-25T18:33:23.140Z,10.20
2018-09-25T18:35:57.985Z,10.10
2018-09-25T18:38:32.634Z,10.10
2018-09-25T18:41:07.093Z,10.10
2018-09-25T18:43:41.022Z,10.00
2018-09-25T18:46:15.072Z,10.00
2018-09-25T18:48:48.957Z,10.00
2018-09-25T18:51:24.429Z,10.00
2018-09-25T18:54:00.132Z,10.00
2018-09-25T18:56:33.960Z,9.90
2018-09-25T18:59:08.304Z,9.90
2018-09-25T19:01:42.191Z,9.90
2018-09-25T19:04:16.174Z,9.90
2018-09-25T19:06:50.329Z,9.80
2018-09-25T19:09:24.661Z,9.80
2018-09-25T19:11:58.587Z,9.80
2018-09-25T19:14:35.450Z,9.70
2018-09-25T19:17:09.303Z,9.80
2018-09-25T19:19:43.230Z,9.80
2018-09-25T19:22:17.266Z,9.80
2018-09-25T19:24:51.280Z,9.80
2018-09-25T19:27:25.326Z,9.80
2018-09-25T19:29:59.285Z,9.70
2018-09-25T19:32:33.094Z,9.70
2018-09-25T19:35:08.091Z,9.70
2018-09-25T19:37:42.043Z,9.70
2018-09-25T19:40:15.846Z,9.70
2018-09-25T19:42:49.734Z,9.70
2018-09-25T19:45:23.675Z,9.70
2018-09-25T19:47:57.748Z,9.60
2018-09-25T19:50:31.623Z,9.60
2018-09-25T19:53:05.600Z,9.50
2018-09-25T19:55:39.783Z,9.50
2018-09-25T19:58:14.727Z,9.40
2018-09-25T20:00:49.571Z,9.40
2018-09-25T20:03:23.587Z,9.30
2018-09-25T20:05:57.557Z,9.20
2018-09-25T20:08:31.676Z,9.20
2018-09-25T20:11:07.219Z,9.20
2018-09-25T20:13:41.161Z,9.20
2018-09-25T20:16:15.105Z,9.20
2018-09-25T20:18:49.656Z,9.20
2018-09-25T20:21:23.762Z,9.10
2018-09-25T20:23:59.159Z,9.10
2018-09-25T20:26:33.083Z,9.00
2018-09-25T20:29:06.968Z,9.00
2018-09-25T20:31:40.822Z,9.00
2018-09-25T20:34:15.585Z,9.00
2018-09-25T20:36:49.901Z,8.90
2018-09-25T20:39:23.855Z,8.90
2018-09-25T20:41:57.746Z,8.90
2018-09-25T20:44:32.455Z,8.90
2018-09-25T20:47:06.303Z,8.90
2018-09-25T20:49:40.263Z,8.80
2018-09-25T20:52:14.293Z,8.80
2018-09-25T20:54:49.460Z,8.80
2018-09-25T20:57:23.686Z,8.80
2018-09-25T20:59:58.105Z,8.80
2018-09-25T21:02:32.057Z,8.80
2018-09-25T21:05:05.982Z,8.80
2018-09-25T21:07:40.555Z,8.70
2018-09-25T21:10:14.250Z,8.80
2018-09-25T21:12:48.162Z,8.80
2018-09-25T21:15:25.884Z,8.80
2018-09-25T21:17:59.930Z,8.70
2018-09-25T21:20:33.753Z,8.70
2018-09-25T21:23:07.748Z,8.70
2018-09-25T21:25:42.439Z,8.70
2018-09-25T21:28:17.161Z,8.70
2018-09-25T21:30:54.539Z,8.60
2018-09-25T21:33:28.323Z,8.60
2018-09-25T21:36:02.497Z,8.50
2018-09-25T21:38:37.222Z,8.50
2018-09-25T21:41:12.174Z,8.50
2018-09-25T21:43:46.156Z,8.50
2018-09-25T21:46:20.599Z,8.50
2018-09-25T21:48:55.031Z,8.50
2018-09-25T21:51:28.888Z,8.50
2018-09-25T21:54:02.823Z,8.40
2018-09-25T21:56:36.857Z,8.50
2018-09-25T21:59:10.764Z,8.50
2018-09-25T22:01:45.538Z,8.50
2018-09-25T22:04:19.519Z,8.50
2018-09-25T22:06:53.369Z,8.50
2018-09-25T22:09:27.770Z,8.40
2018-09-25T22:12:01.608Z,8.40
2018-09-25T22:14:35.638Z,8.40
2018-09-25T22:17:09.495Z,8.40
2018-09-25T22:19:44.631Z,8.50
2018-09-25T22:22:18.513Z,8.40
2018-09-25T22:24:52.383Z,8.40
2018-09-25T22:27:26.339Z,8.40
2018-09-25T22:30:01.017Z,8.40
2018-09-25T22:32:35.858Z,8.40
2018-09-25T22:35:09.910Z,8.30
2018-09-25T22:37:43.830Z,8.30
2018-09-25T22:40:17.705Z,8.30
2018-09-25T22:42:52.362Z,8.20
2018-09-25T22:45:27.130Z,8.20
2018-09-25T22:48:00.896Z,8.20
2018-09-25T22:50:34.750Z,8.10
2018-09-25T22:53:11.238Z,8.10
2018-09-25T22:55:45.262Z,8.10
2018-09-25T22:58:20.855Z,8.10
2018-09-25T23:00:54.530Z,8.10
2018-09-25T23:03:28.201Z,8.10
2018-09-25T23:06:02.117Z,8.10
2018-09-25T23:08:36.529Z,8.00
2018-09-25T23:11:10.490Z,8.00
2018-09-25T23:13:44.300Z,8.00
2018-09-25T23:16:18.146Z,7.90
2018-09-25T23:18:51.983Z,7.90
2018-09-25T23:21:25.903Z,7.90
2018-09-25T23:23:59.818Z,7.90
2018-09-25T23:26:33.776Z,7.90
2018-09-25T23:29:08.493Z,7.90
2018-09-25T23:31:42.393Z,7.90
2018-09-25T23:34:16.280Z,7.90
2018-09-25T23:36:51.071Z,7.90
2018-09-25T23:40:28.944Z,7.90
2018-09-25T23:43:02.947Z,8.00
2018-09-25T23:45:36.739Z,8.00
2018-09-25T23:48:09.457Z,7.90
2018-09-25T23:50:53.948Z,7.90
2018-09-25T23:53:31.805Z,7.90
2018-09-25T23:56:08.386Z,7.90
2018-09-25T23:58:42.371Z,7.90
